createdAt,value
2022-10-13T00:01:41.818Z,17.50
2022-10-13T00:04:27.726Z,17.40
2022-10-13T00:14:02.555Z,17.20
2022-10-13T00:16:48.632Z,17.20
2022-10-13T00:19:34.260Z,17.20
2022-10-13T00:22:20.160Z,17.20
2022-10-13T00:25:06.312Z,17.10
2022-10-13T00:27:51.905Z,17.10
2022-10-13T00:30:39.862Z,17.10
2022-10-13T00:33:25.764Z,17.10
2022-10-13T00:36:11.744Z,17.10
2022-10-13T00:38:58.419Z,17.10
2022-10-13T00:41:45.082Z,17.00
2022-10-13T00:45:00.306Z,16.90
2022-10-13T00:47:51.524Z,17.00
2022-10-13T00:50:40.301Z,16.90
2022-10-13T00:53:32.996Z,16.80
2022-10-13T00:56:21.015Z,16.80
2022-10-13T00:59:24.620Z,16.80
2022-10-13T01:02:12.467Z,16.80
2022-10-13T01:04:59.903Z,16.80
2022-10-13T01:07:49.378Z,16.80
2022-10-13T01:10:57.053Z,16.70
2022-10-13T01:13:56.948Z,16.80
2022-10-13T01:17:19.857Z,16.80
2022-10-13T01:20:17.708Z,16.80
2022-10-13T01:23:21.883Z,16.90
2022-10-13T01:26:31.768Z,16.90
2022-10-13T01:29:22.801Z,16.90
2022-10-13T01:32:21.270Z,16.90
2022-10-13T01:35:42.915Z,16.90
2022-10-13T01:38:48.176Z,16.80
2022-10-13T01:41:49.707Z,16.80
2022-10-13T01:44:40.054Z,16.60
2022-10-13T01:47:26.564Z,16.60
2022-10-13T01:50:15.944Z,16.50
2022-10-13T01:53:04.508Z,16.60
2022-10-13T01:55:52.027Z,16.60
2022-10-13T01:58:38.569Z,16.50
2022-10-13T02:01:32.845Z,16.40
2022-10-13T02:04:37.650Z,16.40
2022-10-13T02:07:43.113Z,16.40
2022-10-13T02:10:46.438Z,16.40
2022-10-13T02:13:34.587Z,16.40
2022-10-13T02:16:23.561Z,16.50
2022-10-13T02:19:14.335Z,16.40
2022-10-13T02:22:00.271Z,16.50
2022-10-13T02:24:46.369Z,16.50
2022-10-13T02:27:32.073Z,16.40
2022-10-13T02:30:24.323Z,16.40
2022-10-13T02:33:10.083Z,16.50
2022-10-13T02:35:56.371Z,16.30
2022-10-13T02:38:42.511Z,16.30
2022-10-13T02:41:28.206Z,16.40
2022-10-13T02:44:14.151Z,16.40
2022-10-13T02:47:00.315Z,16.50
2022-10-13T02:49:46.595Z,16.50
2022-10-13T02:52:32.088Z,16.50
2022-10-13T02:55:18.138Z,16.50
2022-10-13T02:58:04.619Z,16.50
2022-10-13T03:00:50.156Z,16.40
2022-10-13T03:03:36.174Z,16.40
2022-10-13T03:06:22.124Z,16.30
2022-10-13T03:09:08.117Z,16.30
2022-10-13T03:11:54.315Z,16.30
2022-10-13T03:14:40.404Z,16.30
2022-10-13T03:17:27.073Z,16.30
2022-10-13T03:20:13.029Z,16.20
2022-10-13T03:22:58.175Z,16.20
2022-10-13T03:25:43.848Z,16.30
2022-10-13T03:28:29.536Z,16.30
2022-10-13T03:31:15.430Z,16.30
2022-10-13T03:34:01.117Z,16.20
2022-10-13T03:36:46.873Z,16.30
2022-10-13T03:39:32.552Z,16.30
2022-10-13T03:42:18.690Z,16.30
2022-10-13T03:45:07.274Z,16.20
2022-10-13T03:47:54.294Z,16.10
2022-10-13T03:50:42.879Z,16.00
2022-10-13T03:53:28.680Z,15.90
2022-10-13T03:56:17.530Z,15.80
2022-10-13T03:59:11.968Z,15.80
2022-10-13T04:01:58.103Z,15.80
2022-10-13T04:04:44.167Z,15.90
2022-10-13T04:07:29.700Z,15.90
2022-10-13T04:10:15.615Z,15.90
2022-10-13T04:13:01.524Z,16.00
2022-10-13T04:15:47.168Z,16.00
2022-10-13T04:18:33.349Z,16.10
2022-10-13T04:21:19.482Z,15.90
2022-10-13T04:24:05.787Z,15.80
2022-10-13T04:26:51.595Z,15.90
2022-10-13T04:29:37.198Z,15.80
2022-10-13T04:32:23.020Z,15.80
2022-10-13T04:35:09.070Z,15.80
2022-10-13T04:37:57.426Z,15.70
2022-10-13T04:40:42.805Z,15.70
2022-10-13T04:43:28.906Z,15.60
2022-10-13T04:46:25.362Z,15.60
2022-10-13T04:49:13.172Z,15.60
2022-10-13T04:51:59.985Z,15.30
2022-10-13T04:54:45.511Z,15.20
2022-10-13T04:57:31.011Z,14.80
2022-10-13T05:00:17.227Z,14.90
2022-10-13T05:03:03.066Z,15.00
2022-10-13T05:05:49.295Z,15.10
2022-10-13T05:08:35.172Z,15.10
2022-10-13T05:11:21.132Z,15.20
2022-10-13T05:14:07.102Z,15.20
2022-10-13T05:16:52.971Z,15.40
2022-10-13T05:19:39.664Z,15.30
2022-10-13T05:22:25.952Z,15.20
2022-10-13T05:25:11.617Z,15.10
2022-10-13T05:27:57.168Z,15.20
2022-10-13T05:30:42.737Z,15.00
2022-10-13T05:33:28.686Z,15.20
2022-10-13T05:36:17.120Z,15.50
2022-10-13T05:39:06.185Z,15.80
2022-10-13T05:41:53.304Z,15.90
2022-10-13T05:44:41.636Z,16.10
2022-10-13T05:47:28.322Z,16.10
2022-10-13T05:50:14.722Z,16.00
2022-10-13T05:53:01.027Z,16.00
2022-10-13T05:55:46.704Z,16.00
2022-10-13T05:58:38.207Z,16.00
2022-10-13T06:01:27.409Z,16.00
2022-10-13T06:04:23.478Z,15.90
2022-10-13T06:07:10.063Z,16.00
2022-10-13T06:09:58.320Z,16.00
2022-10-13T06:12:44.154Z,16.00
2022-10-13T06:15:29.755Z,16.10
2022-10-13T06:18:16.752Z,16.00
2022-10-13T06:21:02.775Z,16.10
2022-10-13T06:23:48.532Z,16.00
2022-10-13T06:26:37.231Z,16.00
2022-10-13T06:29:22.927Z,16.00
2022-10-13T06:32:08.905Z,16.10
2022-10-13T06:34:54.514Z,16.00
2022-10-13T06:37:40.455Z,16.10
2022-10-13T06:40:29.213Z,16.20
2022-10-13T06:43:15.177Z,16.40
2022-10-13T06:46:02.132Z,16.50
2022-10-13T06:48:52.018Z,16.40
2022-10-13T06:51:39.156Z,16.50
2022-10-13T06:54:24.750Z,16.70
2022-10-13T06:57:10.390Z,16.80
2022-10-13T06:59:56.623Z,16.80
2022-10-13T07:02:42.083Z,16.80
2022-10-13T07:05:27.685Z,16.70
2022-10-13T07:08:14.412Z,16.90
2022-10-13T07:10:59.936Z,17.10
2022-10-13T07:13:46.977Z,17.10
2022-10-13T07:16:38.224Z,17.60
2022-10-13T07:19:24.623Z,17.20
2022-10-13T07:22:10.210Z,17.50
2022-10-13T07:24:55.809Z,17.60
2022-10-13T07:27:44.630Z,17.90
2022-10-13T07:30:30.255Z,17.70
2022-10-13T07:33:15.803Z,17.30
2022-10-13T07:36:01.374Z,17.40
2022-10-13T07:38:47.436Z,17.50
2022-10-13T07:41:32.886Z,18.00
2022-10-13T07:44:19.040Z,18.40
2022-10-13T07:47:05.570Z,18.60
2022-10-13T07:49:51.215Z,20.20
2022-10-13T07:52:37.379Z,20.40
2022-10-13T07:55:23.271Z,20.50
2022-10-13T07:58:12.768Z,20.40
2022-10-13T08:01:02.367Z,21.70
2022-10-13T08:03:50.568Z,22.20
2022-10-13T08:06:37.516Z,21.80
2022-10-13T08:09:30.513Z,21.00
2022-10-13T08:12:17.065Z,21.00
2022-10-13T08:15:06.300Z,22.40
2022-10-13T08:17:52.475Z,22.90
2022-10-13T08:20:43.747Z,22.90
2022-10-13T08:23:30.113Z,23.90
2022-10-13T08:26:20.073Z,24.60
2022-10-13T08:29:23.482Z,24.70
2022-10-13T08:32:09.638Z,25.10
2022-10-13T08:34:55.343Z,25.10
2022-10-13T08:37:43.480Z,23.90
2022-10-13T08:40:29.889Z,23.40
2022-10-13T08:43:18.885Z,24.30
2022-10-13T08:46:04.811Z,24.50
2022-10-13T08:48:53.542Z,25.30
2022-10-13T08:51:42.047Z,25.70
2022-10-13T08:54:27.514Z,25.60
2022-10-13T08:57:14.058Z,25.80
2022-10-13T08:59:59.906Z,26.40
2022-10-13T09:02:50.291Z,27.00
2022-10-13T09:05:50.441Z,26.70
2022-10-13T09:08:48.727Z,26.50
2022-10-13T09:11:37.250Z,26.80
2022-10-13T09:14:28.164Z,27.70
2022-10-13T09:17:34.195Z,26.80
2022-10-13T09:20:24.375Z,27.80
2022-10-13T09:23:20.386Z,28.40
2022-10-13T09:26:18.922Z,29.50
2022-10-13T09:29:17.351Z,30.60
2022-10-13T09:32:27.246Z,30.90
2022-10-13T09:35:21.763Z,28.90
2022-10-13T09:38:15.305Z,29.50
2022-10-13T09:41:08.916Z,30.80
2022-10-13T09:43:58.386Z,31.70
2022-10-13T09:46:56.877Z,30.70
2022-10-13T09:49:44.817Z,30.60
2022-10-13T09:52:30.674Z,31.10
2022-10-13T09:55:35.116Z,30.20
2022-10-13T09:58:30.166Z,26.30
2022-10-13T10:01:25.706Z,26.10
2022-10-13T10:04:16.434Z,26.00
2022-10-13T10:07:10.833Z,25.90
2022-10-13T10:10:09.066Z,25.60
2022-10-13T10:12:54.932Z,24.70
2022-10-13T10:16:11.716Z,23.60
2022-10-13T10:19:13.058Z,24.10
2022-10-13T10:22:04.198Z,23.90
2022-10-13T10:25:22.462Z,22.90
2022-10-13T10:28:17.873Z,22.10
2022-10-13T10:31:22.984Z,22.60
2022-10-13T10:34:46.615Z,22.70
2022-10-13T10:37:38.551Z,22.00
2022-10-13T10:40:40.326Z,23.20
2022-10-13T10:43:41.361Z,23.40
2022-10-13T10:46:39.246Z,23.60
2022-10-13T10:49:34.215Z,23.80
2022-10-13T10:52:29.698Z,23.50
2022-10-13T10:55:32.355Z,23.20
2022-10-13T10:58:56.959Z,21.70
2022-10-13T11:02:01.000Z,22.40
2022-10-13T11:04:49.089Z,22.10
2022-10-13T11:07:35.175Z,21.70
2022-10-13T11:10:26.354Z,21.80
2022-10-13T11:13:19.524Z,21.50
2022-10-13T11:16:35.756Z,22.00
2022-10-13T11:19:32.166Z,21.70
2022-10-13T11:22:28.052Z,21.10
2022-10-13T11:25:41.121Z,21.40
2022-10-13T11:28:42.730Z,21.80
2022-10-13T11:31:46.724Z,21.60
2022-10-13T11:34:32.741Z,22.50
2022-10-13T11:37:18.513Z,23.00
2022-10-13T11:40:16.344Z,23.30
2022-10-13T11:43:17.201Z,23.30
2022-10-13T11:46:12.045Z,23.00
2022-10-13T11:49:05.690Z,23.10
2022-10-13T11:52:40.212Z,22.20
2022-10-13T11:55:56.778Z,21.60
2022-10-13T11:58:42.920Z,21.80
2022-10-13T12:01:28.789Z,22.60
2022-10-13T12:04:15.455Z,23.00
2022-10-13T12:07:04.767Z,23.00
2022-10-13T12:09:57.069Z,22.30
2022-10-13T12:12:50.230Z,22.30
2022-10-13T12:15:40.883Z,22.30
2022-10-13T12:18:39.115Z,22.20
2022-10-13T12:21:25.103Z,22.50
2022-10-13T12:24:13.894Z,22.70
2022-10-13T12:26:59.428Z,23.00
2022-10-13T12:29:46.513Z,23.20
2022-10-13T12:32:35.987Z,23.30
2022-10-13T12:35:28.569Z,23.40
2022-10-13T12:38:19.906Z,23.50
2022-10-13T12:41:06.100Z,23.50
2022-10-13T12:43:53.248Z,23.40
2022-10-13T12:46:44.656Z,23.40
2022-10-13T12:49:35.664Z,23.10
2022-10-13T12:52:25.075Z,23.20
2022-10-13T12:55:16.284Z,23.70
2022-10-13T12:58:03.062Z,23.20
2022-10-13T13:01:06.737Z,23.40
2022-10-13T13:04:17.630Z,23.60
2022-10-13T13:07:04.968Z,24.00
2022-10-13T13:10:16.205Z,24.10
2022-10-13T13:13:15.268Z,24.30
2022-10-13T13:16:20.168Z,24.40
2022-10-13T13:19:06.032Z,24.40
2022-10-13T13:24:40.723Z,24.00
2022-10-13T13:27:38.568Z,23.60
2022-10-13T13:30:24.672Z,24.10
2022-10-13T13:36:02.360Z,24.30
2022-10-13T13:38:49.415Z,24.20
2022-10-13T13:41:35.255Z,23.90
2022-10-13T13:44:20.956Z,23.20
2022-10-13T13:47:31.446Z,23.60
2022-10-13T13:50:24.392Z,23.60
2022-10-13T13:53:15.822Z,23.40
2022-10-13T13:56:01.215Z,23.80
2022-10-13T13:58:47.737Z,23.40
2022-10-13T14:01:33.346Z,22.80
2022-10-13T14:04:19.132Z,22.50
2022-10-13T14:07:04.784Z,22.50
2022-10-13T14:09:50.213Z,23.30
2022-10-13T14:12:36.454Z,22.70
2022-10-13T14:15:25.872Z,22.50
2022-10-13T14:18:16.423Z,22.80
2022-10-13T14:21:06.226Z,22.70
2022-10-13T14:23:51.814Z,22.90
2022-10-13T14:26:37.974Z,23.20
2022-10-13T14:29:23.704Z,23.60
2022-10-13T14:32:09.545Z,23.70
2022-10-13T14:34:55.384Z,22.50
2022-10-13T14:37:41.021Z,22.10
2022-10-13T14:40:26.925Z,22.00
2022-10-13T14:43:12.783Z,22.10
2022-10-13T14:46:07.871Z,22.30
2022-10-13T14:48:55.889Z,22.20
2022-10-13T14:51:41.540Z,22.20
2022-10-13T14:54:27.499Z,22.20
2022-10-13T14:57:16.214Z,22.00
2022-10-13T15:00:02.569Z,22.10
2022-10-13T15:02:48.268Z,22.20
2022-10-13T15:05:34.095Z,22.10
2022-10-13T15:08:19.627Z,22.10
2022-10-13T15:11:05.377Z,22.00
2022-10-13T15:13:51.021Z,22.10
2022-10-13T15:16:38.027Z,22.20
2022-10-13T15:19:23.727Z,22.30
2022-10-13T15:22:09.338Z,22.10
2022-10-13T15:24:56.387Z,21.90
2022-10-13T15:27:42.409Z,21.90
2022-10-13T15:30:28.225Z,21.90
2022-10-13T15:33:14.040Z,22.10
2022-10-13T15:36:00.303Z,21.90
2022-10-13T15:38:46.412Z,22.00
2022-10-13T15:41:32.295Z,22.00
2022-10-13T15:44:21.010Z,21.80
2022-10-13T15:47:08.333Z,21.80
2022-10-13T15:49:54.792Z,21.80
2022-10-13T15:52:40.993Z,21.70
2022-10-13T15:55:28.653Z,21.60
2022-10-13T15:58:15.091Z,21.70
2022-10-13T16:01:00.703Z,21.80
2022-10-13T16:03:46.362Z,22.30
2022-10-13T16:06:33.641Z,22.70
2022-10-13T16:09:22.781Z,22.80
2022-10-13T16:12:08.650Z,22.80
2022-10-13T16:14:54.925Z,22.60
2022-10-13T16:17:42.123Z,22.30
2022-10-13T16:20:33.969Z,22.10
2022-10-13T16:23:19.834Z,22.20
2022-10-13T16:26:06.950Z,22.30
2022-10-13T16:28:57.033Z,22.50
2022-10-13T16:31:42.375Z,22.40
2022-10-13T16:34:28.220Z,22.60
2022-10-13T16:37:14.420Z,22.50
2022-10-13T16:40:01.379Z,22.40
2022-10-13T16:42:46.983Z,22.20
2022-10-13T16:45:55.065Z,21.70
2022-10-13T16:48:40.568Z,21.60
2022-10-13T16:51:27.742Z,22.00
2022-10-13T16:54:13.261Z,21.90
2022-10-13T16:56:59.725Z,21.90
2022-10-13T16:59:46.330Z,21.90
2022-10-13T17:02:33.249Z,22.00
2022-10-13T17:05:18.758Z,21.90
2022-10-13T17:08:04.905Z,21.70
2022-10-13T17:10:57.342Z,21.90
2022-10-13T17:13:44.028Z,21.70
2022-10-13T17:16:32.780Z,21.60
2022-10-13T17:19:18.451Z,21.60
2022-10-13T17:22:04.137Z,21.30
2022-10-13T17:24:49.849Z,21.00
2022-10-13T17:27:36.626Z,20.90
2022-10-13T17:30:22.604Z,21.20
2022-10-13T17:33:09.440Z,21.20
2022-10-13T17:36:00.537Z,21.00
2022-10-13T17:38:48.042Z,21.10
2022-10-13T17:41:34.433Z,21.20
2022-10-13T17:44:20.452Z,21.30
2022-10-13T17:47:06.205Z,20.90
2022-10-13T17:49:51.839Z,20.60
2022-10-13T17:52:39.516Z,20.70
2022-10-13T17:55:25.146Z,20.80
2022-10-13T17:58:10.660Z,20.80
2022-10-13T18:01:12.562Z,20.70
2022-10-13T18:04:01.678Z,20.50
2022-10-13T18:06:47.578Z,20.40
2022-10-13T18:09:33.200Z,20.30
2022-10-13T18:12:19.193Z,20.20
2022-10-13T18:15:05.554Z,20.20
2022-10-13T18:17:51.151Z,20.10
2022-10-13T18:20:38.635Z,20.00
2022-10-13T18:23:24.307Z,19.90
2022-10-13T18:26:14.114Z,19.80
2022-10-13T18:28:59.913Z,19.80
2022-10-13T18:31:45.515Z,19.70
2022-10-13T18:34:31.544Z,19.80
2022-10-13T18:37:17.409Z,19.70
2022-10-13T18:40:04.941Z,19.60
2022-10-13T18:42:54.591Z,19.50
2022-10-13T18:45:40.585Z,19.40
2022-10-13T18:48:26.986Z,19.40
2022-10-13T18:51:15.233Z,19.50
2022-10-13T18:54:01.635Z,19.50
2022-10-13T18:56:47.342Z,19.20
2022-10-13T18:59:38.579Z,19.00
2022-10-13T19:02:24.650Z,19.00
2022-10-13T19:05:10.244Z,19.00
2022-10-13T19:07:55.991Z,19.20
2022-10-13T19:10:41.484Z,19.00
2022-10-13T19:13:27.772Z,19.00
2022-10-13T19:16:16.219Z,18.90
2022-10-13T19:19:01.857Z,19.00
2022-10-13T19:21:47.835Z,18.80
2022-10-13T19:24:33.540Z,18.70
2022-10-13T19:27:19.728Z,18.70
2022-10-13T19:30:05.849Z,18.60
2022-10-13T19:32:51.390Z,18.60
2022-10-13T19:35:48.278Z,18.60
2022-10-13T19:38:33.990Z,18.60
2022-10-13T19:41:19.583Z,18.40
2022-10-13T19:44:05.120Z,18.40
2022-10-13T19:46:57.168Z,18.40
2022-10-13T19:49:42.547Z,18.40
2022-10-13T19:52:28.229Z,18.30
2022-10-13T19:55:14.921Z,18.20
2022-10-13T19:58:00.369Z,18.20
2022-10-13T20:00:46.841Z,18.10
2022-10-13T20:03:32.742Z,18.40
2022-10-13T20:06:20.934Z,18.30
2022-10-13T20:09:06.553Z,18.20
2022-10-13T20:11:52.404Z,18.20
2022-10-13T20:14:38.215Z,18.20
2022-10-13T20:17:23.933Z,18.20
2022-10-13T20:20:09.726Z,18.10
2022-10-13T20:22:55.615Z,17.90
2022-10-13T20:25:42.038Z,17.90
2022-10-13T20:28:28.086Z,17.90
2022-10-13T20:31:15.305Z,17.70
2022-10-13T20:34:00.868Z,17.50
2022-10-13T20:36:51.093Z,17.80
2022-10-13T20:39:37.193Z,17.90
2022-10-13T20:42:23.134Z,17.90
2022-10-13T20:45:09.853Z,17.80
2022-10-13T20:47:56.359Z,17.70
2022-10-13T20:50:41.838Z,17.60
2022-10-13T20:53:27.534Z,17.60
2022-10-13T20:56:20.054Z,17.50
2022-10-13T20:59:09.315Z,17.50
2022-10-13T21:01:54.754Z,17.60
2022-10-13T21:04:40.278Z,17.60
2022-10-13T21:07:25.840Z,17.50
2022-10-13T21:10:11.566Z,17.50
2022-10-13T21:12:57.169Z,17.50
2022-10-13T21:15:47.135Z,17.50
2022-10-13T21:18:37.110Z,17.30
2022-10-13T21:21:27.906Z,17.30
2022-10-13T21:24:13.592Z,17.50
2022-10-13T21:26:59.054Z,17.60
2022-10-13T21:29:44.760Z,17.70
2022-10-13T21:32:30.685Z,17.70
2022-10-13T21:35:16.885Z,17.70
2022-10-13T21:38:02.936Z,17.70
2022-10-13T21:40:53.685Z,17.60
2022-10-13T21:43:39.818Z,17.60
2022-10-13T21:46:28.334Z,17.70
2022-10-13T21:49:13.908Z,17.60
2022-10-13T21:51:59.520Z,17.60
2022-10-13T21:54:45.234Z,17.40
2022-10-13T21:57:30.804Z,17.40
2022-10-13T22:00:16.960Z,17.40
2022-10-13T22:03:02.897Z,17.20
2022-10-13T22:05:48.331Z,17.20
2022-10-13T22:08:38.756Z,17.00
2022-10-13T22:11:33.271Z,16.90
2022-10-13T22:14:24.202Z,16.90
2022-10-13T22:17:09.837Z,16.90
2022-10-13T22:19:55.447Z,16.70
2022-10-13T22:22:41.171Z,16.60
2022-10-13T22:25:26.660Z,16.60
2022-10-13T22:28:12.265Z,16.60
2022-10-13T22:31:05.020Z,16.70
2022-10-13T22:33:53.563Z,16.80
2022-10-13T22:36:44.541Z,16.60
2022-10-13T22:39:30.729Z,16.20
2022-10-13T22:42:27.089Z,16.10
2022-10-13T22:45:12.631Z,16.10
2022-10-13T22:47:58.313Z,16.20
2022-10-13T22:50:44.764Z,16.30
2022-10-13T22:53:31.991Z,16.50
2022-10-13T22:56:21.080Z,16.50
2022-10-13T22:59:08.080Z,16.60
2022-10-13T23:01:53.537Z,16.50
2022-10-13T23:04:39.163Z,16.40
2022-10-13T23:07:24.796Z,16.20
2022-10-13T23:10:10.289Z,15.90
2022-10-13T23:12:56.080Z,16.30
2022-10-13T23:15:41.624Z,17.20
2022-10-13T23:18:27.631Z,16.50
2022-10-13T23:21:17.299Z,16.40
2022-10-13T23:24:05.679Z,16.30
2022-10-13T23:26:51.041Z,16.20
2022-10-13T23:29:36.627Z,16.20
2022-10-13T23:32:22.533Z,16.20
2022-10-13T23:35:08.611Z,16.30
2022-10-13T23:37:54.431Z,16.30
2022-10-13T23:40:40.475Z,16.30
2022-10-13T23:43:25.976Z,16.30
2022-10-13T23:46:11.868Z,16.30
2022-10-13T23:48:57.541Z,16.30
2022-10-13T23:51:44.152Z,16.30
2022-10-13T23:54:32.915Z,16.20
2022-10-13T23:57:18.486Z,16.20
